sensor_id;sensor_type;location;lat;lon;timestamp;temperature;humidity
3488;DHT22;38546;48.170;11.724;2023-02-26T00:01:15;-0.20;99.90
3488;DHT22;38546;48.170;11.724;2023-02-26T00:04:06;-0.20;99.90
3488;DHT22;38546;48.170;11.724;2023-02-26T00:06:55;-0.30;99.90
3488;DHT22;38546;48.170;11.724;2023-02-26T00:09:45;-0.30;99.90
3488;DHT22;38546;48.170;11.724;2023-02-26T00:12:35;-0.20;99.90
3488;DHT22;38546;48.170;11.724;2023-02-26T00:15:25;-0.20;99.90
3488;DHT22;38546;48.170;11.724;2023-02-26T00:18:16;-0.10;99.90
3488;DHT22;38546;48.170;11.724;2023-02-26T00:21:07;-0.20;99.90
3488;DHT22;38546;48.170;11.724;2023-02-26T00:23:58;-0.30;99.90
3488;DHT22;38546;48.170;11.724;2023-02-26T00:26:48;-0.30;99.90
3488;DHT22;38546;48.170;11.724;2023-02-26T00:29:38;-0.30;99.90
3488;DHT22;38546;48.170;11.724;2023-02-26T00:32:28;-0.20;99.90
3488;DHT22;38546;48.170;11.724;2023-02-26T00:35:19;-0.20;99.90
3488;DHT22;38546;48.170;11.724;2023-02-26T00:38:10;-0.30;99.90
3488;DHT22;38546;48.170;11.724;2023-02-26T00:41:01;-0.30;99.90
3488;DHT22;38546;48.170;11.724;2023-02-26T00:43:51;-0.40;99.90
3488;DHT22;38546;48.170;11.724;2023-02-26T00:46:49;-0.30;99.90
3488;DHT22;38546;48.170;11.724;2023-02-26T00:50:25;-0.40;99.90
3488;DHT22;38546;48.170;11.724;2023-02-26T00:53:30;-0.30;99.90
3488;DHT22;38546;48.170;11.724;2023-02-26T00:56:23;-0.40;99.90
3488;DHT22;38546;48.170;11.724;2023-02-26T00:59:12;-0.50;99.90
3488;DHT22;38546;48.170;11.724;2023-02-26T01:02:01;-0.40;99.90
3488;DHT22;38546;48.170;11.724;2023-02-26T01:04:51;-0.40;99.90
3488;DHT22;38546;48.170;11.724;2023-02-26T01:08:33;-0.40;99.90
3488;DHT22;38546;48.170;11.724;2023-02-26T01:11:27;-0.30;99.90
3488;DHT22;38546;48.170;11.724;2023-02-26T01:14:18;-0.40;99.90
3488;DHT22;38546;48.170;11.724;2023-02-26T01:18:13;-0.30;99.90
3488;DHT22;38546;48.170;11.724;2023-02-26T01:21:11;-0.20;99.90
3488;DHT22;38546;48.170;11.724;2023-02-26T01:24:05;-0.30;99.90
3488;DHT22;38546;48.170;11.724;2023-02-26T01:26:57;-0.20;99.90
3488;DHT22;38546;48.170;11.724;2023-02-26T01:29:47;0.10;99.90
3488;DHT22;38546;48.170;11.724;2023-02-26T01:33:29;0.10;99.90
3488;DHT22;38546;48.170;11.724;2023-02-26T01:36:23;-0.20;99.90
3488;DHT22;38546;48.170;11.724;2023-02-26T01:39:31;-0.30;99.90
3488;DHT22;38546;48.170;11.724;2023-02-26T01:42:37;-0.20;99.90
3488;DHT22;38546;48.170;11.724;2023-02-26T01:45:34;-0.40;99.90
3488;DHT22;38546;48.170;11.724;2023-02-26T01:48:36;-0.30;99.90
3488;DHT22;38546;48.170;11.724;2023-02-26T01:51:50;-0.30;99.90
3488;DHT22;38546;48.170;11.724;2023-02-26T01:54:40;-0.30;99.90
3488;DHT22;38546;48.170;11.724;2023-02-26T01:57:30;-0.30;99.90
3488;DHT22;38546;48.170;11.724;2023-02-26T02:00:20;-0.30;99.90
3488;DHT22;38546;48.170;11.724;2023-02-26T02:03:10;-0.50;99.90
3488;DHT22;38546;48.170;11.724;2023-02-26T02:06:06;-0.50;99.90
3488;DHT22;38546;48.170;11.724;2023-02-26T02:08:58;-0.50;99.90
3488;DHT22;38546;48.170;11.724;2023-02-26T02:18:34;-0.50;99.90
3488;DHT22;38546;48.170;11.724;2023-02-26T02:21:51;-0.50;99.90
3488;DHT22;38546;48.170;11.724;2023-02-26T02:25:04;-0.30;99.90
3488;DHT22;38546;48.170;11.724;2023-02-26T02:28:30;-0.30;99.90
3488;DHT22;38546;48.170;11.724;2023-02-26T02:33:17;-0.60;99.90
3488;DHT22;38546;48.170;11.724;2023-02-26T02:36:42;-0.60;99.90
3488;DHT22;38546;48.170;11.724;2023-02-26T02:39:52;-0.70;99.90
3488;DHT22;38546;48.170;11.724;2023-02-26T02:43:15;-0.50;99.90
3488;DHT22;38546;48.170;11.724;2023-02-26T02:46:17;-0.50;99.90
3488;DHT22;38546;48.170;11.724;2023-02-26T02:49:19;-0.70;99.90
3488;DHT22;38546;48.170;11.724;2023-02-26T02:52:25;-0.70;99.90
3488;DHT22;38546;48.170;11.724;2023-02-26T02:55:28;-0.60;99.90
3488;DHT22;38546;48.170;11.724;2023-02-26T02:58:24;-0.70;99.90
3488;DHT22;38546;48.170;11.724;2023-02-26T03:01:18;-0.90;99.90
3488;DHT22;38546;48.170;11.724;2023-02-26T03:04:12;-0.80;99.90
3488;DHT22;38546;48.170;11.724;2023-02-26T03:07:03;-1.00;99.90
3488;DHT22;38546;48.170;11.724;2023-02-26T03:09:53;-0.90;99.90
3488;DHT22;38546;48.170;11.724;2023-02-26T03:12:43;-1.00;99.90
3488;DHT22;38546;48.170;11.724;2023-02-26T03:15:52;-1.10;99.90
3488;DHT22;38546;48.170;11.724;2023-02-26T03:22:40;-1.00;99.90
3488;DHT22;38546;48.170;11.724;2023-02-26T03:25:57;-0.90;99.90
3488;DHT22;38546;48.170;11.724;2023-02-26T03:30:30;-1.00;99.90
3488;DHT22;38546;48.170;11.724;2023-02-26T03:33:53;-1.20;99.90
3488;DHT22;38546;48.170;11.724;2023-02-26T03:37:07;-0.90;99.90
3488;DHT22;38546;48.170;11.724;2023-02-26T03:40:05;-1.20;99.90
3488;DHT22;38546;48.170;11.724;2023-02-26T03:43:17;-1.10;99.90
3488;DHT22;38546;48.170;11.724;2023-02-26T03:46:14;-1.30;99.90
3488;DHT22;38546;48.170;11.724;2023-02-26T03:49:16;-1.30;99.90
3488;DHT22;38546;48.170;11.724;2023-02-26T03:52:08;-1.40;99.90
3488;DHT22;38546;48.170;11.724;2023-02-26T03:55:24;-1.30;99.90
3488;DHT22;38546;48.170;11.724;2023-02-26T03:58:17;-1.20;99.90
3488;DHT22;38546;48.170;11.724;2023-02-26T04:01:10;-1.30;99.90
3488;DHT22;38546;48.170;11.724;2023-02-26T04:04:08;-1.20;99.90
3488;DHT22;38546;48.170;11.724;2023-02-26T04:07:01;-1.40;99.90
3488;DHT22;38546;48.170;11.724;2023-02-26T04:09:51;-1.30;99.90
3488;DHT22;38546;48.170;11.724;2023-02-26T04:12:41;-1.40;99.90
3488;DHT22;38546;48.170;11.724;2023-02-26T04:15:31;-1.30;99.90
3488;DHT22;38546;48.170;11.724;2023-02-26T04:18:21;-1.40;99.90
3488;DHT22;38546;48.170;11.724;2023-02-26T04:21:15;-1.40;99.90
3488;DHT22;38546;48.170;11.724;2023-02-26T04:24:05;-1.10;99.90
3488;DHT22;38546;48.170;11.724;2023-02-26T04:26:54;-1.20;99.90
3488;DHT22;38546;48.170;11.724;2023-02-26T04:29:44;-1.30;99.90
3488;DHT22;38546;48.170;11.724;2023-02-26T04:32:33;-1.40;99.90
3488;DHT22;38546;48.170;11.724;2023-02-26T04:35:23;-1.40;99.90
3488;DHT22;38546;48.170;11.724;2023-02-26T04:38:12;-1.50;99.90
3488;DHT22;38546;48.170;11.724;2023-02-26T04:41:03;-1.50;99.90
3488;DHT22;38546;48.170;11.724;2023-02-26T04:43:52;-1.70;99.90
3488;DHT22;38546;48.170;11.724;2023-02-26T04:46:41;-1.60;99.90
3488;DHT22;38546;48.170;11.724;2023-02-26T04:49:31;-1.80;99.90
3488;DHT22;38546;48.170;11.724;2023-02-26T04:52:21;-1.80;99.90
3488;DHT22;38546;48.170;11.724;2023-02-26T04:55:10;-1.80;99.90
3488;DHT22;38546;48.170;11.724;2023-02-26T04:58:00;-1.90;99.90
3488;DHT22;38546;48.170;11.724;2023-02-26T05:00:51;-1.80;99.90
3488;DHT22;38546;48.170;11.724;2023-02-26T05:03:42;-1.80;99.90
3488;DHT22;38546;48.170;11.724;2023-02-26T05:06:32;-2.00;99.90
3488;DHT22;38546;48.170;11.724;2023-02-26T05:09:21;-2.10;99.90
3488;DHT22;38546;48.170;11.724;2023-02-26T05:12:10;-2.20;99.90
3488;DHT22;38546;48.170;11.724;2023-02-26T05:14:59;-2.20;99.90
3488;DHT22;38546;48.170;11.724;2023-02-26T05:17:48;-2.20;99.90
3488;DHT22;38546;48.170;11.724;2023-02-26T05:20:37;-2.30;99.90
3488;DHT22;38546;48.170;11.724;2023-02-26T05:23:27;-2.30;99.90
3488;DHT22;38546;48.170;11.724;2023-02-26T05:26:17;-2.30;99.90
3488;DHT22;38546;48.170;11.724;2023-02-26T05:29:06;-2.40;99.90
3488;DHT22;38546;48.170;11.724;2023-02-26T05:31:56;-2.50;99.90
3488;DHT22;38546;48.170;11.724;2023-02-26T05:34:45;-2.40;99.90
3488;DHT22;38546;48.170;11.724;2023-02-26T05:37:35;-2.20;99.90
3488;DHT22;38546;48.170;11.724;2023-02-26T05:40:24;-2.40;99.90
3488;DHT22;38546;48.170;11.724;2023-02-26T05:43:13;-2.50;99.90
3488;DHT22;38546;48.170;11.724;2023-02-26T05:46:03;-2.60;99.90
3488;DHT22;38546;48.170;11.724;2023-02-26T05:48:52;-2.50;99.90
3488;DHT22;38546;48.170;11.724;2023-02-26T05:51:41;-2.60;99.90
3488;DHT22;38546;48.170;11.724;2023-02-26T05:54:30;-2.60;99.90
3488;DHT22;38546;48.170;11.724;2023-02-26T05:57:19;-2.60;99.90
3488;DHT22;38546;48.170;11.724;2023-02-26T06:00:10;-2.80;99.90
3488;DHT22;38546;48.170;11.724;2023-02-26T06:03:00;-2.80;99.90
3488;DHT22;38546;48.170;11.724;2023-02-26T06:05:49;-2.80;99.90
3488;DHT22;38546;48.170;11.724;2023-02-26T06:08:38;-2.70;99.90
3488;DHT22;38546;48.170;11.724;2023-02-26T06:11:28;-2.70;99.90
3488;DHT22;38546;48.170;11.724;2023-02-26T06:14:17;-2.90;99.90
3488;DHT22;38546;48.170;11.724;2023-02-26T06:17:07;-3.00;99.90
3488;DHT22;38546;48.170;11.724;2023-02-26T06:19:56;-2.90;99.90
3488;DHT22;38546;48.170;11.724;2023-02-26T06:22:45;-2.90;99.90
3488;DHT22;38546;48.170;11.724;2023-02-26T06:25:34;-3.00;99.90
3488;DHT22;38546;48.170;11.724;2023-02-26T06:28:23;-3.00;99.90
3488;DHT22;38546;48.170;11.724;2023-02-26T06:31:12;-2.90;99.90
3488;DHT22;38546;48.170;11.724;2023-02-26T06:34:01;-2.80;99.90
3488;DHT22;38546;48.170;11.724;2023-02-26T06:36:50;-2.70;99.90
3488;DHT22;38546;48.170;11.724;2023-02-26T06:39:39;-2.70;99.90
3488;DHT22;38546;48.170;11.724;2023-02-26T06:42:28;-2.70;99.90
3488;DHT22;38546;48.170;11.724;2023-02-26T06:45:20;-2.70;99.90
3488;DHT22;38546;48.170;11.724;2023-02-26T06:48:09;-2.70;99.90
3488;DHT22;38546;48.170;11.724;2023-02-26T06:50:58;-2.80;99.90
3488;DHT22;38546;48.170;11.724;2023-02-26T06:53:47;-2.80;99.90
3488;DHT22;38546;48.170;11.724;2023-02-26T06:56:36;-2.70;99.90
3488;DHT22;38546;48.170;11.724;2023-02-26T06:59:25;-2.70;99.90
3488;DHT22;38546;48.170;11.724;2023-02-26T07:02:16;-2.60;99.90
3488;DHT22;38546;48.170;11.724;2023-02-26T07:05:06;-2.60;99.90
3488;DHT22;38546;48.170;11.724;2023-02-26T07:07:56;-2.60;99.90
3488;DHT22;38546;48.170;11.724;2023-02-26T07:10:45;-2.50;99.90
3488;DHT22;38546;48.170;11.724;2023-02-26T07:13:37;-2.50;99.90
3488;DHT22;38546;48.170;11.724;2023-02-26T07:16:26;-2.40;99.90
3488;DHT22;38546;48.170;11.724;2023-02-26T07:19:15;-2.20;99.90
3488;DHT22;38546;48.170;11.724;2023-02-26T07:22:04;-2.20;99.90
3488;DHT22;38546;48.170;11.724;2023-02-26T07:24:53;-2.10;99.90
3488;DHT22;38546;48.170;11.724;2023-02-26T07:27:42;-1.80;99.90
3488;DHT22;38546;48.170;11.724;2023-02-26T07:30:32;-1.70;99.90
3488;DHT22;38546;48.170;11.724;2023-02-26T07:33:22;-1.60;99.90
3488;DHT22;38546;48.170;11.724;2023-02-26T07:36:11;-1.60;99.90
3488;DHT22;38546;48.170;11.724;2023-02-26T07:39:00;-1.60;99.90
3488;DHT22;38546;48.170;11.724;2023-02-26T07:41:49;-1.50;99.90
3488;DHT22;38546;48.170;11.724;2023-02-26T07:44:38;-1.40;99.90
3488;DHT22;38546;48.170;11.724;2023-02-26T07:47:27;-1.40;99.90
3488;DHT22;38546;48.170;11.724;2023-02-26T07:50:19;-1.70;99.90
3488;DHT22;38546;48.170;11.724;2023-02-26T07:53:09;-1.80;99.90
3488;DHT22;38546;48.170;11.724;2023-02-26T07:55:58;-2.00;99.90
3488;DHT22;38546;48.170;11.724;2023-02-26T07:58:47;-2.00;99.90
3488;DHT22;38546;48.170;11.724;2023-02-26T08:01:37;-2.10;99.90
3488;DHT22;38546;48.170;11.724;2023-02-26T08:04:26;-2.10;99.90
3488;DHT22;38546;48.170;11.724;2023-02-26T08:07:16;-1.90;99.90
3488;DHT22;38546;48.170;11.724;2023-02-26T08:10:06;-1.90;99.90
3488;DHT22;38546;48.170;11.724;2023-02-26T08:12:56;-1.80;99.90
3488;DHT22;38546;48.170;11.724;2023-02-26T08:15:47;-1.70;99.90
3488;DHT22;38546;48.170;11.724;2023-02-26T08:18:36;-1.50;99.90
3488;DHT22;38546;48.170;11.724;2023-02-26T08:21:26;-1.40;99.90
3488;DHT22;38546;48.170;11.724;2023-02-26T08:24:15;-1.30;99.90
3488;DHT22;38546;48.170;11.724;2023-02-26T08:27:04;-1.20;99.90
3488;DHT22;38546;48.170;11.724;2023-02-26T08:29:53;-1.00;99.90
3488;DHT22;38546;48.170;11.724;2023-02-26T08:32:43;-0.90;99.90
3488;DHT22;38546;48.170;11.724;2023-02-26T08:35:34;-0.80;99.90
3488;DHT22;38546;48.170;11.724;2023-02-26T08:38:27;-0.70;99.90
3488;DHT22;38546;48.170;11.724;2023-02-26T08:41:17;-0.70;99.90
3488;DHT22;38546;48.170;11.724;2023-02-26T08:44:06;-0.90;99.90
3488;DHT22;38546;48.170;11.724;2023-02-26T08:46:56;-1.00;99.90
3488;DHT22;38546;48.170;11.724;2023-02-26T08:49:45;-1.00;99.90
3488;DHT22;38546;48.170;11.724;2023-02-26T08:52:34;-1.00;99.90
3488;DHT22;38546;48.170;11.724;2023-02-26T08:55:24;-0.80;99.90
3488;DHT22;38546;48.170;11.724;2023-02-26T08:58:13;-0.70;99.90
3488;DHT22;38546;48.170;11.724;2023-02-26T09:01:03;-0.70;99.90
3488;DHT22;38546;48.170;11.724;2023-02-26T09:03:53;-0.70;99.90
3488;DHT22;38546;48.170;11.724;2023-02-26T09:06:42;-0.90;99.90
3488;DHT22;38546;48.170;11.724;2023-02-26T09:09:32;-0.90;99.90
3488;DHT22;38546;48.170;11.724;2023-02-26T09:12:21;-1.00;99.90
3488;DHT22;38546;48.170;11.724;2023-02-26T09:15:11;-0.90;99.90
3488;DHT22;38546;48.170;11.724;2023-02-26T09:18:02;-0.70;99.90
3488;DHT22;38546;48.170;11.724;2023-02-26T09:20:51;-0.70;99.90
3488;DHT22;38546;48.170;11.724;2023-02-26T09:23:40;-0.60;99.90
3488;DHT22;38546;48.170;11.724;2023-02-26T09:26:29;-0.50;99.90
3488;DHT22;38546;48.170;11.724;2023-02-26T09:29:19;-0.50;99.90
3488;DHT22;38546;48.170;11.724;2023-02-26T09:32:08;-0.50;99.90
3488;DHT22;38546;48.170;11.724;2023-02-26T09:34:58;-0.50;99.90
3488;DHT22;38546;48.170;11.724;2023-02-26T09:37:47;-0.50;99.90
3488;DHT22;38546;48.170;11.724;2023-02-26T09:40:44;-0.50;99.90
3488;DHT22;38546;48.170;11.724;2023-02-26T09:48:43;-0.70;99.90
3488;DHT22;38546;48.170;11.724;2023-02-26T09:51:34;-0.50;99.90
3488;DHT22;38546;48.170;11.724;2023-02-26T09:54:26;-0.30;99.90
3488;DHT22;38546;48.170;11.724;2023-02-26T09:58:05;-0.50;99.90
3488;DHT22;38546;48.170;11.724;2023-02-26T10:12:17;0.00;99.90
3488;DHT22;38546;48.170;11.724;2023-02-26T10:15:21;0.30;99.90
3488;DHT22;38546;48.170;11.724;2023-02-26T10:18:20;0.20;99.90
3488;DHT22;38546;48.170;11.724;2023-02-26T10:21:25;-0.20;99.90
3488;DHT22;38546;48.170;11.724;2023-02-26T10:24:25;0.00;99.90
3488;DHT22;38546;48.170;11.724;2023-02-26T10:27:22;0.00;99.90
3488;DHT22;38546;48.170;11.724;2023-02-26T10:35:17;0.40;99.90
3488;DHT22;38546;48.170;11.724;2023-02-26T10:38:12;0.00;99.90
3488;DHT22;38546;48.170;11.724;2023-02-26T10:41:09;-0.60;99.90
3488;DHT22;38546;48.170;11.724;2023-02-26T10:44:17;-0.70;99.90
3488;DHT22;38546;48.170;11.724;2023-02-26T10:47:59;-0.60;99.90
3488;DHT22;38546;48.170;11.724;2023-02-26T10:52:31;-0.50;99.90
3488;DHT22;38546;48.170;11.724;2023-02-26T10:59:59;-0.30;99.90
3488;DHT22;38546;48.170;11.724;2023-02-26T11:02:50;-0.10;99.90
3488;DHT22;38546;48.170;11.724;2023-02-26T11:05:41;-0.20;99.90
3488;DHT22;38546;48.170;11.724;2023-02-26T11:08:34;-0.20;99.90
3488;DHT22;38546;48.170;11.724;2023-02-26T11:11:56;0.20;99.90
3488;DHT22;38546;48.170;11.724;2023-02-26T11:15:17;0.80;99.90
3488;DHT22;38546;48.170;11.724;2023-02-26T11:18:13;0.30;99.90
3488;DHT22;38546;48.170;11.724;2023-02-26T11:21:06;0.20;99.90
3488;DHT22;38546;48.170;11.724;2023-02-26T11:24:16;0.40;99.90
3488;DHT22;38546;48.170;11.724;2023-02-26T11:27:16;0.10;99.90
3488;DHT22;38546;48.170;11.724;2023-02-26T11:30:20;0.00;99.90
3488;DHT22;38546;48.170;11.724;2023-02-26T11:33:26;-0.40;99.90
3488;DHT22;38546;48.170;11.724;2023-02-26T11:36:19;0.00;99.90
3488;DHT22;38546;48.170;11.724;2023-02-26T11:39:25;-0.20;99.90
3488;DHT22;38546;48.170;11.724;2023-02-26T11:42:17;0.10;99.90
3488;DHT22;38546;48.170;11.724;2023-02-26T11:45:07;-0.10;99.90
3488;DHT22;38546;48.170;11.724;2023-02-26T11:48:05;-0.60;99.90
3488;DHT22;38546;48.170;11.724;2023-02-26T11:51:00;-0.50;99.90
3488;DHT22;38546;48.170;11.724;2023-02-26T11:53:54;-0.50;99.90
3488;DHT22;38546;48.170;11.724;2023-02-26T11:56:46;-0.60;99.90
3488;DHT22;38546;48.170;11.724;2023-02-26T11:59:39;-0.50;99.90
3488;DHT22;38546;48.170;11.724;2023-02-26T12:02:32;-0.60;99.90
3488;DHT22;38546;48.170;11.724;2023-02-26T12:05:25;-0.60;99.90
3488;DHT22;38546;48.170;11.724;2023-02-26T12:08:27;-0.50;99.90
3488;DHT22;38546;48.170;11.724;2023-02-26T12:13:00;-0.40;99.90
3488;DHT22;38546;48.170;11.724;2023-02-26T12:16:25;-0.20;99.90
3488;DHT22;38546;48.170;11.724;2023-02-26T12:26:08;0.40;99.90
3488;DHT22;38546;48.170;11.724;2023-02-26T12:36:17;1.20;99.90
3488;DHT22;38546;48.170;11.724;2023-02-26T13:06:13;1.60;99.90
3488;DHT22;38546;48.170;11.724;2023-02-26T13:09:33;1.80;99.90
3488;DHT22;38546;48.170;11.724;2023-02-26T13:13:16;1.90;99.90
3488;DHT22;38546;48.170;11.724;2023-02-26T13:16:53;1.50;99.90
3488;DHT22;38546;48.170;11.724;2023-02-26T13:23:20;0.50;99.90
3488;DHT22;38546;48.170;11.724;2023-02-26T13:26:13;0.90;99.90
3488;DHT22;38546;48.170;11.724;2023-02-26T13:29:49;0.90;99.90
3488;DHT22;38546;48.170;11.724;2023-02-26T13:32:50;0.70;99.90
3488;DHT22;38546;48.170;11.724;2023-02-26T13:35:44;0.40;99.90
3488;DHT22;38546;48.170;11.724;2023-02-26T13:41:43;0.30;99.90
3488;DHT22;38546;48.170;11.724;2023-02-26T13:45:33;0.40;99.90
3488;DHT22;38546;48.170;11.724;2023-02-26T13:52:05;0.40;99.90
3488;DHT22;38546;48.170;11.724;2023-02-26T13:55:40;0.10;99.90
3488;DHT22;38546;48.170;11.724;2023-02-26T13:58:38;0.40;99.90
3488;DHT22;38546;48.170;11.724;2023-02-26T14:01:49;0.60;99.90
3488;DHT22;38546;48.170;11.724;2023-02-26T14:04:53;0.90;99.90
3488;DHT22;38546;48.170;11.724;2023-02-26T14:07:53;0.80;99.90
3488;DHT22;38546;48.170;11.724;2023-02-26T14:14:43;0.90;99.90
3488;DHT22;38546;48.170;11.724;2023-02-26T14:18:41;0.90;99.90
3488;DHT22;38546;48.170;11.724;2023-02-26T14:21:56;0.90;99.90
3488;DHT22;38546;48.170;11.724;2023-02-26T14:25:40;0.80;99.90
3488;DHT22;38546;48.170;11.724;2023-02-26T14:28:42;1.10;99.90
3488;DHT22;38546;48.170;11.724;2023-02-26T14:33:08;1.30;99.90
3488;DHT22;38546;48.170;11.724;2023-02-26T14:36:17;1.00;99.90
3488;DHT22;38546;48.170;11.724;2023-02-26T14:39:26;0.70;99.90
3488;DHT22;38546;48.170;11.724;2023-02-26T14:43:06;0.60;99.90
3488;DHT22;38546;48.170;11.724;2023-02-26T14:46:04;0.50;99.90
3488;DHT22;38546;48.170;11.724;2023-02-26T14:48:53;0.60;99.90
3488;DHT22;38546;48.170;11.724;2023-02-26T14:52:05;0.60;99.90
3488;DHT22;38546;48.170;11.724;2023-02-26T14:57:01;0.50;99.90
3488;DHT22;38546;48.170;11.724;2023-02-26T15:04:00;0.50;99.90
3488;DHT22;38546;48.170;11.724;2023-02-26T15:12:19;0.70;99.90
3488;DHT22;38546;48.170;11.724;2023-02-26T15:17:13;0.70;99.90
3488;DHT22;38546;48.170;11.724;2023-02-26T15:20:51;0.70;99.90
3488;DHT22;38546;48.170;11.724;2023-02-26T15:23:53;0.60;99.90
3488;DHT22;38546;48.170;11.724;2023-02-26T15:26:50;0.30;99.90
3488;DHT22;38546;48.170;11.724;2023-02-26T15:29:42;0.10;99.90
3488;DHT22;38546;48.170;11.724;2023-02-26T15:32:36;0.20;99.90
3488;DHT22;38546;48.170;11.724;2023-02-26T15:35:29;0.20;99.90
3488;DHT22;38546;48.170;11.724;2023-02-26T15:38:20;0.50;99.90
3488;DHT22;38546;48.170;11.724;2023-02-26T15:41:10;0.50;99.90
3488;DHT22;38546;48.170;11.724;2023-02-26T15:44:05;0.60;99.90
3488;DHT22;38546;48.170;11.724;2023-02-26T15:46:58;0.60;99.90
3488;DHT22;38546;48.170;11.724;2023-02-26T15:49:50;0.60;99.90
3488;DHT22;38546;48.170;11.724;2023-02-26T15:52:41;0.70;99.90
3488;DHT22;38546;48.170;11.724;2023-02-26T15:55:35;0.50;99.90
3488;DHT22;38546;48.170;11.724;2023-02-26T15:58:38;0.50;99.90
3488;DHT22;38546;48.170;11.724;2023-02-26T16:01:31;0.40;99.90
3488;DHT22;38546;48.170;11.724;2023-02-26T16:04:21;0.50;99.90
3488;DHT22;38546;48.170;11.724;2023-02-26T16:07:11;0.50;99.90
3488;DHT22;38546;48.170;11.724;2023-02-26T16:10:07;0.60;99.90
3488;DHT22;38546;48.170;11.724;2023-02-26T16:13:06;0.40;99.90
3488;DHT22;38546;48.170;11.724;2023-02-26T16:16:10;0.70;99.90
3488;DHT22;38546;48.170;11.724;2023-02-26T16:19:02;0.60;99.90
3488;DHT22;38546;48.170;11.724;2023-02-26T16:21:53;0.30;99.90
3488;DHT22;38546;48.170;11.724;2023-02-26T16:24:43;0.10;99.90
3488;DHT22;38546;48.170;11.724;2023-02-26T16:27:34;0.00;99.90
3488;DHT22;38546;48.170;11.724;2023-02-26T16:30:31;0.00;99.90
3488;DHT22;38546;48.170;11.724;2023-02-26T16:33:25;-0.10;99.90
3488;DHT22;38546;48.170;11.724;2023-02-26T16:36:15;0.00;99.90
3488;DHT22;38546;48.170;11.724;2023-02-26T16:39:22;-0.10;99.90
3488;DHT22;38546;48.170;11.724;2023-02-26T16:42:15;-0.10;99.90
3488;DHT22;38546;48.170;11.724;2023-02-26T16:46:10;0.00;99.90
3488;DHT22;38546;48.170;11.724;2023-02-26T16:49:10;-0.10;99.90
3488;DHT22;38546;48.170;11.724;2023-02-26T16:52:05;0.10;99.90
3488;DHT22;38546;48.170;11.724;2023-02-26T16:55:02;0.30;99.90
3488;DHT22;38546;48.170;11.724;2023-02-26T16:57:54;0.20;99.90
3488;DHT22;38546;48.170;11.724;2023-02-26T17:00:45;0.10;99.90
3488;DHT22;38546;48.170;11.724;2023-02-26T17:03:35;-0.10;99.90
3488;DHT22;38546;48.170;11.724;2023-02-26T17:06:27;-0.10;99.90
3488;DHT22;38546;48.170;11.724;2023-02-26T17:09:36;-0.20;99.90
3488;DHT22;38546;48.170;11.724;2023-02-26T17:12:46;-0.20;99.90
3488;DHT22;38546;48.170;11.724;2023-02-26T17:15:38;-0.20;99.90
3488;DHT22;38546;48.170;11.724;2023-02-26T17:18:29;-0.20;99.90
3488;DHT22;38546;48.170;11.724;2023-02-26T17:21:18;-0.30;99.90
3488;DHT22;38546;48.170;11.724;2023-02-26T17:24:14;-0.30;99.90
3488;DHT22;38546;48.170;11.724;2023-02-26T17:27:05;-0.10;99.90
3488;DHT22;38546;48.170;11.724;2023-02-26T17:29:56;0.00;99.90
3488;DHT22;38546;48.170;11.724;2023-02-26T17:32:45;-0.10;99.90
3488;DHT22;38546;48.170;11.724;2023-02-26T17:35:35;-0.20;99.90
3488;DHT22;38546;48.170;11.724;2023-02-26T17:38:24;-0.40;99.90
3488;DHT22;38546;48.170;11.724;2023-02-26T17:41:17;-0.50;99.90
3488;DHT22;38546;48.170;11.724;2023-02-26T17:44:06;-0.90;99.90
3488;DHT22;38546;48.170;11.724;2023-02-26T17:46:55;-1.00;99.90
3488;DHT22;38546;48.170;11.724;2023-02-26T17:49:43;-1.10;99.90
3488;DHT22;38546;48.170;11.724;2023-02-26T17:52:32;-1.10;99.90
3488;DHT22;38546;48.170;11.724;2023-02-26T17:55:21;-1.20;99.90
3488;DHT22;38546;48.170;11.724;2023-02-26T17:58:28;-1.20;99.90
3488;DHT22;38546;48.170;11.724;2023-02-26T18:01:20;-1.20;99.90
3488;DHT22;38546;48.170;11.724;2023-02-26T18:04:11;-1.20;99.90
3488;DHT22;38546;48.170;11.724;2023-02-26T18:07:01;-1.10;99.90
3488;DHT22;38546;48.170;11.724;2023-02-26T18:09:49;-1.20;99.90
3488;DHT22;38546;48.170;11.724;2023-02-26T18:12:38;-1.10;99.90
3488;DHT22;38546;48.170;11.724;2023-02-26T18:15:28;-1.30;99.90
3488;DHT22;38546;48.170;11.724;2023-02-26T18:18:17;-1.10;99.90
3488;DHT22;38546;48.170;11.724;2023-02-26T18:21:07;-1.10;99.90
3488;DHT22;38546;48.170;11.724;2023-02-26T18:23:57;-1.10;99.90
3488;DHT22;38546;48.170;11.724;2023-02-26T18:26:48;-1.10;99.90
3488;DHT22;38546;48.170;11.724;2023-02-26T18:29:37;-1.10;99.90
3488;DHT22;38546;48.170;11.724;2023-02-26T18:32:26;-0.90;99.90
3488;DHT22;38546;48.170;11.724;2023-02-26T18:35:16;-1.00;99.90
3488;DHT22;38546;48.170;11.724;2023-02-26T18:38:05;-1.00;99.90
3488;DHT22;38546;48.170;11.724;2023-02-26T18:40:55;-1.10;99.90
3488;DHT22;38546;48.170;11.724;2023-02-26T18:43:44;-1.00;99.90
3488;DHT22;38546;48.170;11.724;2023-02-26T18:46:33;-0.80;99.90
3488;DHT22;38546;48.170;11.724;2023-02-26T18:49:26;-0.80;99.90
3488;DHT22;38546;48.170;11.724;2023-02-26T18:52:15;-0.90;99.90
3488;DHT22;38546;48.170;11.724;2023-02-26T18:55:05;-0.90;99.90
3488;DHT22;38546;48.170;11.724;2023-02-26T18:57:55;-1.00;99.90
3488;DHT22;38546;48.170;11.724;2023-02-26T19:00:45;-0.90;99.90
3488;DHT22;38546;48.170;11.724;2023-02-26T19:03:35;-0.90;99.90
3488;DHT22;38546;48.170;11.724;2023-02-26T19:06:24;-0.90;99.90
3488;DHT22;38546;48.170;11.724;2023-02-26T19:09:12;-0.90;99.90
3488;DHT22;38546;48.170;11.724;2023-02-26T19:12:02;-0.80;99.90
3488;DHT22;38546;48.170;11.724;2023-02-26T19:14:53;-0.90;99.90
3488;DHT22;38546;48.170;11.724;2023-02-26T19:17:43;-0.80;99.90
3488;DHT22;38546;48.170;11.724;2023-02-26T19:20:32;-0.90;99.90
3488;DHT22;38546;48.170;11.724;2023-02-26T19:23:22;-0.90;99.90
3488;DHT22;38546;48.170;11.724;2023-02-26T19:26:11;-1.00;99.90
3488;DHT22;38546;48.170;11.724;2023-02-26T19:29:01;-0.90;99.90
3488;DHT22;38546;48.170;11.724;2023-02-26T19:31:52;-1.10;99.90
3488;DHT22;38546;48.170;11.724;2023-02-26T19:34:41;-1.00;99.90
3488;DHT22;38546;48.170;11.724;2023-02-26T19:37:30;-0.90;99.90
3488;DHT22;38546;48.170;11.724;2023-02-26T19:40:19;-1.00;99.90
3488;DHT22;38546;48.170;11.724;2023-02-26T19:43:09;-1.00;99.90
3488;DHT22;38546;48.170;11.724;2023-02-26T19:45:58;-1.10;99.90
3488;DHT22;38546;48.170;11.724;2023-02-26T19:48:48;-1.10;99.90
3488;DHT22;38546;48.170;11.724;2023-02-26T19:51:37;-1.20;99.90
3488;DHT22;38546;48.170;11.724;2023-02-26T19:54:27;-1.10;99.90
3488;DHT22;38546;48.170;11.724;2023-02-26T19:57:16;-1.30;99.90
3488;DHT22;38546;48.170;11.724;2023-02-26T20:00:06;-1.10;99.90
3488;DHT22;38546;48.170;11.724;2023-02-26T20:02:56;-1.20;99.90
3488;DHT22;38546;48.170;11.724;2023-02-26T20:05:45;-1.10;99.90
3488;DHT22;38546;48.170;11.724;2023-02-26T20:08:35;-1.20;99.90
3488;DHT22;38546;48.170;11.724;2023-02-26T20:11:24;-1.20;99.90
3488;DHT22;38546;48.170;11.724;2023-02-26T20:14:14;-1.20;99.90
3488;DHT22;38546;48.170;11.724;2023-02-26T20:17:03;-1.20;99.90
3488;DHT22;38546;48.170;11.724;2023-02-26T20:19:52;-1.10;99.90
3488;DHT22;38546;48.170;11.724;2023-02-26T20:22:41;-1.30;99.90
3488;DHT22;38546;48.170;11.724;2023-02-26T20:25:30;-1.20;99.90
3488;DHT22;38546;48.170;11.724;2023-02-26T20:28:19;-1.10;99.90